sensor_id;sensor_type;location;lat;lon;timestamp;temperature;humidity
19330;DHT22;9799;48.214;16.388;2022-10-04T00:02:46;13.90;99.90
19330;DHT22;9799;48.214;16.388;2022-10-04T00:06:14;13.90;99.90
19330;DHT22;9799;48.214;16.388;2022-10-04T00:09:42;13.90;99.90
19330;DHT22;9799;48.214;16.388;2022-10-04T00:13:11;13.80;99.90
19330;DHT22;9799;48.214;16.388;2022-10-04T00:16:36;13.90;99.90
19330;DHT22;9799;48.214;16.388;2022-10-04T00:19:59;13.90;99.90
19330;DHT22;9799;48.214;16.388;2022-10-04T00:23:28;14.00;99.90
19330;DHT22;9799;48.214;16.388;2022-10-04T00:27:11;14.00;99.90
19330;DHT22;9799;48.214;16.388;2022-10-04T00:30:39;14.00;99.90
19330;DHT22;9799;48.214;16.388;2022-10-04T00:37:58;14.00;99.90
19330;DHT22;9799;48.214;16.388;2022-10-04T00:41:22;14.00;99.90
19330;DHT22;9799;48.214;16.388;2022-10-04T00:44:47;14.00;99.90
19330;DHT22;9799;48.214;16.388;2022-10-04T00:48:33;14.00;99.90
19330;DHT22;9799;48.214;16.388;2022-10-04T00:52:00;14.00;99.90
19330;DHT22;9799;48.214;16.388;2022-10-04T00:55:25;13.90;99.90
19330;DHT22;9799;48.214;16.388;2022-10-04T00:59:20;13.90;99.90
19330;DHT22;9799;48.214;16.388;2022-10-04T01:02:51;14.00;99.90
19330;DHT22;9799;48.214;16.388;2022-10-04T01:06:14;14.00;99.90
19330;DHT22;9799;48.214;16.388;2022-10-04T01:09:38;13.90;99.90
19330;DHT22;9799;48.214;16.388;2022-10-04T01:13:07;13.90;99.90
19330;DHT22;9799;48.214;16.388;2022-10-04T01:16:32;14.00;99.90
19330;DHT22;9799;48.214;16.388;2022-10-04T01:19:54;13.90;99.90
19330;DHT22;9799;48.214;16.388;2022-10-04T01:23:33;14.00;99.90
19330;DHT22;9799;48.214;16.388;2022-10-04T01:26:54;14.00;99.90
19330;DHT22;9799;48.214;16.388;2022-10-04T01:30:17;14.00;99.90
19330;DHT22;9799;48.214;16.388;2022-10-04T01:33:39;14.00;99.90
19330;DHT22;9799;48.214;16.388;2022-10-04T01:37:00;14.00;99.90
19330;DHT22;9799;48.214;16.388;2022-10-04T01:40:23;14.00;99.90
19330;DHT22;9799;48.214;16.388;2022-10-04T01:43:46;14.00;99.90
19330;DHT22;9799;48.214;16.388;2022-10-04T01:47:11;14.00;99.90
19330;DHT22;9799;48.214;16.388;2022-10-04T01:50:36;14.00;99.90
19330;DHT22;9799;48.214;16.388;2022-10-04T01:54:01;13.90;99.90
19330;DHT22;9799;48.214;16.388;2022-10-04T01:57:29;13.80;99.90
19330;DHT22;9799;48.214;16.388;2022-10-04T02:00:55;13.70;99.90
19330;DHT22;9799;48.214;16.388;2022-10-04T02:04:20;13.80;99.90
19330;DHT22;9799;48.214;16.388;2022-10-04T02:07:43;13.90;99.90
19330;DHT22;9799;48.214;16.388;2022-10-04T02:11:06;13.60;99.90
19330;DHT22;9799;48.214;16.388;2022-10-04T02:14:31;13.70;99.90
19330;DHT22;9799;48.214;16.388;2022-10-04T02:17:53;13.70;99.90
19330;DHT22;9799;48.214;16.388;2022-10-04T02:21:16;13.80;99.90
19330;DHT22;9799;48.214;16.388;2022-10-04T02:24:42;13.80;99.90
19330;DHT22;9799;48.214;16.388;2022-10-04T02:28:09;13.80;99.90
19330;DHT22;9799;48.214;16.388;2022-10-04T02:31:33;13.90;99.90
19330;DHT22;9799;48.214;16.388;2022-10-04T02:35:15;13.80;99.90
19330;DHT22;9799;48.214;16.388;2022-10-04T02:38:43;13.80;99.90
19330;DHT22;9799;48.214;16.388;2022-10-04T02:42:12;13.80;99.90
19330;DHT22;9799;48.214;16.388;2022-10-04T02:45:42;13.80;99.90
19330;DHT22;9799;48.214;16.388;2022-10-04T02:49:14;13.80;99.90
19330;DHT22;9799;48.214;16.388;2022-10-04T02:52:43;13.80;99.90
19330;DHT22;9799;48.214;16.388;2022-10-04T02:56:08;13.90;99.90
19330;DHT22;9799;48.214;16.388;2022-10-04T02:59:31;13.70;99.90
19330;DHT22;9799;48.214;16.388;2022-10-04T03:03:15;13.70;99.90
19330;DHT22;9799;48.214;16.388;2022-10-04T03:06:39;13.80;99.90
19330;DHT22;9799;48.214;16.388;2022-10-04T03:10:02;13.80;99.90
19330;DHT22;9799;48.214;16.388;2022-10-04T03:13:26;13.80;99.90
19330;DHT22;9799;48.214;16.388;2022-10-04T03:16:50;13.70;99.90
19330;DHT22;9799;48.214;16.388;2022-10-04T03:20:13;13.60;99.90
19330;DHT22;9799;48.214;16.388;2022-10-04T03:23:36;13.50;99.90
19330;DHT22;9799;48.214;16.388;2022-10-04T03:27:00;13.50;99.90
19330;DHT22;9799;48.214;16.388;2022-10-04T03:30:22;13.50;99.90
19330;DHT22;9799;48.214;16.388;2022-10-04T03:33:44;13.50;99.90
19330;DHT22;9799;48.214;16.388;2022-10-04T03:37:07;13.60;99.90
19330;DHT22;9799;48.214;16.388;2022-10-04T03:40:31;13.50;99.90
19330;DHT22;9799;48.214;16.388;2022-10-04T03:43:54;13.50;99.90
19330;DHT22;9799;48.214;16.388;2022-10-04T03:47:19;13.50;99.90
19330;DHT22;9799;48.214;16.388;2022-10-04T03:50:45;13.50;99.90
19330;DHT22;9799;48.214;16.388;2022-10-04T03:54:10;13.50;99.90
19330;DHT22;9799;48.214;16.388;2022-10-04T03:57:37;13.40;99.90
19330;DHT22;9799;48.214;16.388;2022-10-04T04:01:10;13.50;99.90
19330;DHT22;9799;48.214;16.388;2022-10-04T04:04:42;13.50;99.90
19330;DHT22;9799;48.214;16.388;2022-10-04T04:08:09;13.50;99.90
19330;DHT22;9799;48.214;16.388;2022-10-04T04:11:32;13.50;99.90
19330;DHT22;9799;48.214;16.388;2022-10-04T04:14:54;13.40;99.90
19330;DHT22;9799;48.214;16.388;2022-10-04T04:18:18;13.40;99.90
19330;DHT22;9799;48.214;16.388;2022-10-04T04:21:40;13.30;99.90
19330;DHT22;9799;48.214;16.388;2022-10-04T04:25:05;13.40;99.90
19330;DHT22;9799;48.214;16.388;2022-10-04T04:28:32;13.40;99.90
19330;DHT22;9799;48.214;16.388;2022-10-04T04:31:57;13.40;99.90
19330;DHT22;9799;48.214;16.388;2022-10-04T04:35:22;13.50;99.90
19330;DHT22;9799;48.214;16.388;2022-10-04T04:38:44;13.50;99.90
19330;DHT22;9799;48.214;16.388;2022-10-04T04:42:24;13.50;99.90
19330;DHT22;9799;48.214;16.388;2022-10-04T04:45:48;13.60;99.90
19330;DHT22;9799;48.214;16.388;2022-10-04T04:49:11;13.60;99.90
19330;DHT22;9799;48.214;16.388;2022-10-04T04:52:35;13.60;99.90
19330;DHT22;9799;48.214;16.388;2022-10-04T04:55:59;13.50;99.90
19330;DHT22;9799;48.214;16.388;2022-10-04T04:59:21;13.50;99.90
19330;DHT22;9799;48.214;16.388;2022-10-04T05:02:50;13.50;99.90
19330;DHT22;9799;48.214;16.388;2022-10-04T05:06:25;13.50;99.90
19330;DHT22;9799;48.214;16.388;2022-10-04T05:09:46;13.60;99.90
19330;DHT22;9799;48.214;16.388;2022-10-04T05:13:08;13.60;99.90
19330;DHT22;9799;48.214;16.388;2022-10-04T05:16:36;13.50;99.90
19330;DHT22;9799;48.214;16.388;2022-10-04T05:20:00;13.50;99.90
19330;DHT22;9799;48.214;16.388;2022-10-04T05:23:24;13.50;99.90
19330;DHT22;9799;48.214;16.388;2022-10-04T05:26:49;13.50;99.90
19330;DHT22;9799;48.214;16.388;2022-10-04T05:30:23;13.50;99.90
19330;DHT22;9799;48.214;16.388;2022-10-04T05:33:48;13.60;99.90
19330;DHT22;9799;48.214;16.388;2022-10-04T05:37:33;13.60;99.90
19330;DHT22;9799;48.214;16.388;2022-10-04T05:41:06;13.70;99.90
19330;DHT22;9799;48.214;16.388;2022-10-04T05:44:34;13.60;99.90
19330;DHT22;9799;48.214;16.388;2022-10-04T05:47:56;13.60;99.90
19330;DHT22;9799;48.214;16.388;2022-10-04T05:51:19;13.60;99.90
19330;DHT22;9799;48.214;16.388;2022-10-04T05:54:42;13.70;99.90
19330;DHT22;9799;48.214;16.388;2022-10-04T06:02:19;13.70;99.90
19330;DHT22;9799;48.214;16.388;2022-10-04T06:05:49;13.70;99.90
19330;DHT22;9799;48.214;16.388;2022-10-04T06:09:15;13.60;99.90
19330;DHT22;9799;48.214;16.388;2022-10-04T06:12:47;13.70;99.90
19330;DHT22;9799;48.214;16.388;2022-10-04T06:16:19;13.70;99.90
19330;DHT22;9799;48.214;16.388;2022-10-04T06:23:32;13.70;99.90
19330;DHT22;9799;48.214;16.388;2022-10-04T06:26:59;13.70;99.90
19330;DHT22;9799;48.214;16.388;2022-10-04T06:30:22;13.80;99.90
19330;DHT22;9799;48.214;16.388;2022-10-04T06:33:57;13.70;99.90
19330;DHT22;9799;48.214;16.388;2022-10-04T06:37:41;13.70;99.90
19330;DHT22;9799;48.214;16.388;2022-10-04T06:41:32;13.70;99.90
19330;DHT22;9799;48.214;16.388;2022-10-04T06:45:08;13.70;99.90
19330;DHT22;9799;48.214;16.388;2022-10-04T06:49:03;13.80;99.90
19330;DHT22;9799;48.214;16.388;2022-10-04T06:52:43;13.70;99.90
19330;DHT22;9799;48.214;16.388;2022-10-04T06:56:31;13.80;99.90
19330;DHT22;9799;48.214;16.388;2022-10-04T07:00:07;13.80;99.90
19330;DHT22;9799;48.214;16.388;2022-10-04T07:03:36;13.80;99.90
19330;DHT22;9799;48.214;16.388;2022-10-04T07:07:10;13.90;99.90
19330;DHT22;9799;48.214;16.388;2022-10-04T07:10:50;13.80;99.90
19330;DHT22;9799;48.214;16.388;2022-10-04T07:14:17;13.90;99.90
19330;DHT22;9799;48.214;16.388;2022-10-04T07:17:41;13.80;99.90
19330;DHT22;9799;48.214;16.388;2022-10-04T07:21:06;14.00;99.90
19330;DHT22;9799;48.214;16.388;2022-10-04T07:24:38;14.00;99.90
19330;DHT22;9799;48.214;16.388;2022-10-04T07:28:11;14.00;99.90
19330;DHT22;9799;48.214;16.388;2022-10-04T07:32:05;14.00;99.90
19330;DHT22;9799;48.214;16.388;2022-10-04T07:35:32;14.10;99.90
19330;DHT22;9799;48.214;16.388;2022-10-04T07:38:57;14.10;99.90
19330;DHT22;9799;48.214;16.388;2022-10-04T07:42:25;14.00;99.90
19330;DHT22;9799;48.214;16.388;2022-10-04T07:45:49;14.20;99.90
19330;DHT22;9799;48.214;16.388;2022-10-04T07:49:13;14.40;99.90
19330;DHT22;9799;48.214;16.388;2022-10-04T07:52:47;14.30;99.90
19330;DHT22;9799;48.214;16.388;2022-10-04T07:56:15;14.40;99.90
19330;DHT22;9799;48.214;16.388;2022-10-04T07:59:42;14.60;99.90
19330;DHT22;9799;48.214;16.388;2022-10-04T08:03:27;14.40;99.90
19330;DHT22;9799;48.214;16.388;2022-10-04T08:06:55;14.40;99.90
19330;DHT22;9799;48.214;16.388;2022-10-04T08:10:24;14.60;99.90
19330;DHT22;9799;48.214;16.388;2022-10-04T08:13:52;14.60;99.90
19330;DHT22;9799;48.214;16.388;2022-10-04T08:17:29;14.70;99.90
19330;DHT22;9799;48.214;16.388;2022-10-04T08:20:57;14.70;99.90
19330;DHT22;9799;48.214;16.388;2022-10-04T08:24:24;14.80;99.90
19330;DHT22;9799;48.214;16.388;2022-10-04T08:28:01;14.90;99.90
19330;DHT22;9799;48.214;16.388;2022-10-04T08:31:49;15.00;99.90
19330;DHT22;9799;48.214;16.388;2022-10-04T08:35:28;15.00;99.90
19330;DHT22;9799;48.214;16.388;2022-10-04T08:38:56;15.10;99.90
19330;DHT22;9799;48.214;16.388;2022-10-04T08:42:45;15.20;99.90
19330;DHT22;9799;48.214;16.388;2022-10-04T08:46:41;15.30;99.90
19330;DHT22;9799;48.214;16.388;2022-10-04T08:54:24;15.40;99.90
19330;DHT22;9799;48.214;16.388;2022-10-04T08:58:15;15.40;99.90
19330;DHT22;9799;48.214;16.388;2022-10-04T09:01:57;15.40;99.90
19330;DHT22;9799;48.214;16.388;2022-10-04T09:13:26;15.60;99.90
19330;DHT22;9799;48.214;16.388;2022-10-04T09:17:00;15.70;99.90
19330;DHT22;9799;48.214;16.388;2022-10-04T09:20:41;15.80;99.90
19330;DHT22;9799;48.214;16.388;2022-10-04T09:24:26;15.80;99.90
19330;DHT22;9799;48.214;16.388;2022-10-04T09:28:11;15.80;99.90
19330;DHT22;9799;48.214;16.388;2022-10-04T09:32:04;15.80;99.90
19330;DHT22;9799;48.214;16.388;2022-10-04T09:39:40;15.90;99.90
19330;DHT22;9799;48.214;16.388;2022-10-04T09:47:15;15.80;99.90
19330;DHT22;9799;48.214;16.388;2022-10-04T09:51:00;15.80;99.90
19330;DHT22;9799;48.214;16.388;2022-10-04T09:54:51;15.80;99.90
19330;DHT22;9799;48.214;16.388;2022-10-04T09:58:31;15.80;99.90
19330;DHT22;9799;48.214;16.388;2022-10-04T10:09:32;16.10;99.90
19330;DHT22;9799;48.214;16.388;2022-10-04T10:13:31;16.10;99.90
19330;DHT22;9799;48.214;16.388;2022-10-04T10:17:09;16.20;99.90
19330;DHT22;9799;48.214;16.388;2022-10-04T10:21:20;16.40;99.90
19330;DHT22;9799;48.214;16.388;2022-10-04T10:25:01;16.50;99.90
19330;DHT22;9799;48.214;16.388;2022-10-04T10:28:41;16.60;99.90
19330;DHT22;9799;48.214;16.388;2022-10-04T10:44:30;16.20;99.90
19330;DHT22;9799;48.214;16.388;2022-10-04T10:47:59;16.30;99.90
19330;DHT22;9799;48.214;16.388;2022-10-04T10:51:44;16.20;99.90
19330;DHT22;9799;48.214;16.388;2022-10-04T10:55:58;16.20;99.90
19330;DHT22;9799;48.214;16.388;2022-10-04T11:07:29;16.70;99.90
19330;DHT22;9799;48.214;16.388;2022-10-04T11:11:07;16.80;99.90
19330;DHT22;9799;48.214;16.388;2022-10-04T11:14:50;16.80;99.90
19330;DHT22;9799;48.214;16.388;2022-10-04T11:30:22;17.10;99.90
19330;DHT22;9799;48.214;16.388;2022-10-04T11:33:59;17.00;99.90
19330;DHT22;9799;48.214;16.388;2022-10-04T11:37:39;17.30;99.90
19330;DHT22;9799;48.214;16.388;2022-10-04T11:41:14;17.30;99.90
19330;DHT22;9799;48.214;16.388;2022-10-04T11:45:14;17.40;99.90
19330;DHT22;9799;48.214;16.388;2022-10-04T11:48:52;17.40;99.90
19330;DHT22;9799;48.214;16.388;2022-10-04T11:56:31;17.40;99.90
19330;DHT22;9799;48.214;16.388;2022-10-04T12:00:00;17.50;99.90
19330;DHT22;9799;48.214;16.388;2022-10-04T12:03:48;17.50;99.90
19330;DHT22;9799;48.214;16.388;2022-10-04T12:07:37;17.40;99.90
19330;DHT22;9799;48.214;16.388;2022-10-04T12:19:23;17.30;99.90
19330;DHT22;9799;48.214;16.388;2022-10-04T12:23:04;17.30;99.90
19330;DHT22;9799;48.214;16.388;2022-10-04T12:26:59;17.40;99.90
19330;DHT22;9799;48.214;16.388;2022-10-04T12:30:29;17.40;99.90
19330;DHT22;9799;48.214;16.388;2022-10-04T12:34:02;17.50;99.90
19330;DHT22;9799;48.214;16.388;2022-10-04T12:37:29;17.60;99.90
19330;DHT22;9799;48.214;16.388;2022-10-04T12:41:07;17.70;99.90
19330;DHT22;9799;48.214;16.388;2022-10-04T12:44:42;17.60;99.90
19330;DHT22;9799;48.214;16.388;2022-10-04T12:48:21;17.60;99.90
19330;DHT22;9799;48.214;16.388;2022-10-04T12:51:52;17.60;99.90
19330;DHT22;9799;48.214;16.388;2022-10-04T12:55:23;17.60;99.90
19330;DHT22;9799;48.214;16.388;2022-10-04T12:59:08;17.50;99.90
19330;DHT22;9799;48.214;16.388;2022-10-04T13:06:31;17.60;99.90
19330;DHT22;9799;48.214;16.388;2022-10-04T13:10:03;17.70;99.90
19330;DHT22;9799;48.214;16.388;2022-10-04T13:13:45;17.70;99.90
19330;DHT22;9799;48.214;16.388;2022-10-04T13:17:21;17.60;99.90
19330;DHT22;9799;48.214;16.388;2022-10-04T13:20:49;17.60;99.90
19330;DHT22;9799;48.214;16.388;2022-10-04T13:24:19;17.60;99.90
19330;DHT22;9799;48.214;16.388;2022-10-04T13:27:48;17.50;99.90
19330;DHT22;9799;48.214;16.388;2022-10-04T13:31:19;17.40;99.90
19330;DHT22;9799;48.214;16.388;2022-10-04T13:34:51;17.40;99.90
19330;DHT22;9799;48.214;16.388;2022-10-04T13:38:33;17.40;99.90
19330;DHT22;9799;48.214;16.388;2022-10-04T13:42:10;17.50;99.90
19330;DHT22;9799;48.214;16.388;2022-10-04T13:45:44;17.40;99.90
19330;DHT22;9799;48.214;16.388;2022-10-04T13:49:25;17.50;99.90
19330;DHT22;9799;48.214;16.388;2022-10-04T13:52:55;17.60;99.90
19330;DHT22;9799;48.214;16.388;2022-10-04T13:56:52;17.60;99.90
19330;DHT22;9799;48.214;16.388;2022-10-04T14:00:27;17.70;99.90
19330;DHT22;9799;48.214;16.388;2022-10-04T14:04:02;17.70;99.90
19330;DHT22;9799;48.214;16.388;2022-10-04T14:07:53;17.80;99.90
19330;DHT22;9799;48.214;16.388;2022-10-04T14:11:39;17.80;99.90
19330;DHT22;9799;48.214;16.388;2022-10-04T14:15:21;17.80;99.90
19330;DHT22;9799;48.214;16.388;2022-10-04T14:19:11;17.80;99.90
19330;DHT22;9799;48.214;16.388;2022-10-04T14:23:05;17.80;99.90
19330;DHT22;9799;48.214;16.388;2022-10-04T14:26:54;17.90;99.90
19330;DHT22;9799;48.214;16.388;2022-10-04T14:30:33;17.90;99.90
19330;DHT22;9799;48.214;16.388;2022-10-04T14:34:23;17.70;99.90
19330;DHT22;9799;48.214;16.388;2022-10-04T14:42:28;17.70;99.90
19330;DHT22;9799;48.214;16.388;2022-10-04T14:46:08;17.70;99.90
19330;DHT22;9799;48.214;16.388;2022-10-04T14:49:48;17.70;99.90
19330;DHT22;9799;48.214;16.388;2022-10-04T14:53:20;17.60;99.90
19330;DHT22;9799;48.214;16.388;2022-10-04T14:56:57;17.60;99.90
19330;DHT22;9799;48.214;16.388;2022-10-04T15:00:22;17.60;99.90
19330;DHT22;9799;48.214;16.388;2022-10-04T15:04:06;17.60;99.90
19330;DHT22;9799;48.214;16.388;2022-10-04T15:07:34;17.50;99.90
19330;DHT22;9799;48.214;16.388;2022-10-04T15:10:59;17.40;99.90
19330;DHT22;9799;48.214;16.388;2022-10-04T15:14:38;17.40;99.90
19330;DHT22;9799;48.214;16.388;2022-10-04T15:18:10;17.40;99.90
19330;DHT22;9799;48.214;16.388;2022-10-04T15:21:45;17.40;99.90
19330;DHT22;9799;48.214;16.388;2022-10-04T15:25:41;17.40;99.90
19330;DHT22;9799;48.214;16.388;2022-10-04T15:29:12;17.40;99.90
19330;DHT22;9799;48.214;16.388;2022-10-04T15:32:48;17.30;99.90
19330;DHT22;9799;48.214;16.388;2022-10-04T15:36:46;17.30;99.90
19330;DHT22;9799;48.214;16.388;2022-10-04T15:40:27;17.30;99.90
19330;DHT22;9799;48.214;16.388;2022-10-04T15:44:26;17.30;99.90
19330;DHT22;9799;48.214;16.388;2022-10-04T15:48:20;17.30;99.90
19330;DHT22;9799;48.214;16.388;2022-10-04T15:51:57;17.30;99.90
19330;DHT22;9799;48.214;16.388;2022-10-04T15:55:30;17.20;99.90
19330;DHT22;9799;48.214;16.388;2022-10-04T16:03:14;17.20;99.90
19330;DHT22;9799;48.214;16.388;2022-10-04T16:06:44;17.20;99.90
19330;DHT22;9799;48.214;16.388;2022-10-04T16:10:29;17.20;99.90
19330;DHT22;9799;48.214;16.388;2022-10-04T16:14:36;17.10;99.90
19330;DHT22;9799;48.214;16.388;2022-10-04T16:18:33;17.10;99.90
19330;DHT22;9799;48.214;16.388;2022-10-04T16:22:11;17.10;99.90
19330;DHT22;9799;48.214;16.388;2022-10-04T16:25:37;17.00;99.90
19330;DHT22;9799;48.214;16.388;2022-10-04T16:29:06;17.00;99.90
19330;DHT22;9799;48.214;16.388;2022-10-04T16:32:37;17.00;99.90
19330;DHT22;9799;48.214;16.388;2022-10-04T16:36:08;16.90;99.90
19330;DHT22;9799;48.214;16.388;2022-10-04T16:39:37;16.90;99.90
19330;DHT22;9799;48.214;16.388;2022-10-04T16:43:25;16.80;99.90
19330;DHT22;9799;48.214;16.388;2022-10-04T16:46:53;16.80;99.90
19330;DHT22;9799;48.214;16.388;2022-10-04T16:50:51;16.80;99.90
19330;DHT22;9799;48.214;16.388;2022-10-04T16:54:43;16.70;99.90
19330;DHT22;9799;48.214;16.388;2022-10-04T17:06:12;16.60;99.90
19330;DHT22;9799;48.214;16.388;2022-10-04T17:09:38;16.60;99.90
19330;DHT22;9799;48.214;16.388;2022-10-04T17:13:19;16.60;99.90
19330;DHT22;9799;48.214;16.388;2022-10-04T17:16:49;16.50;99.90
19330;DHT22;9799;48.214;16.388;2022-10-04T17:20:25;16.40;99.90
19330;DHT22;9799;48.214;16.388;2022-10-04T17:24:01;16.40;99.90
19330;DHT22;9799;48.214;16.388;2022-10-04T17:27:44;16.40;99.90
19330;DHT22;9799;48.214;16.388;2022-10-04T17:31:09;16.40;99.90
19330;DHT22;9799;48.214;16.388;2022-10-04T17:34:43;16.30;99.90
19330;DHT22;9799;48.214;16.388;2022-10-04T17:38:12;16.20;99.90
19330;DHT22;9799;48.214;16.388;2022-10-04T17:41:58;16.20;99.90
19330;DHT22;9799;48.214;16.388;2022-10-04T17:45:42;16.20;99.90
19330;DHT22;9799;48.214;16.388;2022-10-04T17:49:12;16.10;99.90
19330;DHT22;9799;48.214;16.388;2022-10-04T17:52:59;16.10;99.90
19330;DHT22;9799;48.214;16.388;2022-10-04T17:56:45;16.00;99.90
19330;DHT22;9799;48.214;16.388;2022-10-04T18:00:11;16.00;99.90
19330;DHT22;9799;48.214;16.388;2022-10-04T18:03:38;15.90;99.90
19330;DHT22;9799;48.214;16.388;2022-10-04T18:07:06;15.90;99.90
19330;DHT22;9799;48.214;16.388;2022-10-04T18:10:33;15.80;99.90
19330;DHT22;9799;48.214;16.388;2022-10-04T18:14:01;15.80;99.90
19330;DHT22;9799;48.214;16.388;2022-10-04T18:17:36;15.80;99.90
19330;DHT22;9799;48.214;16.388;2022-10-04T18:21:03;15.60;99.90
19330;DHT22;9799;48.214;16.388;2022-10-04T18:24:27;15.60;99.90
19330;DHT22;9799;48.214;16.388;2022-10-04T18:27:51;15.40;99.90
19330;DHT22;9799;48.214;16.388;2022-10-04T18:31:29;15.50;99.90
19330;DHT22;9799;48.214;16.388;2022-10-04T18:34:53;15.50;99.90
19330;DHT22;9799;48.214;16.388;2022-10-04T18:38:21;15.50;99.90
19330;DHT22;9799;48.214;16.388;2022-10-04T18:41:57;15.50;99.90
19330;DHT22;9799;48.214;16.388;2022-10-04T18:45:25;15.40;99.90
19330;DHT22;9799;48.214;16.388;2022-10-04T18:48:56;15.40;99.90
19330;DHT22;9799;48.214;16.388;2022-10-04T18:52:32;15.40;99.90
19330;DHT22;9799;48.214;16.388;2022-10-04T18:55:59;15.20;99.90
19330;DHT22;9799;48.214;16.388;2022-10-04T18:59:31;15.20;99.90
19330;DHT22;9799;48.214;16.388;2022-10-04T19:03:19;15.20;99.90
19330;DHT22;9799;48.214;16.388;2022-10-04T19:06:45;15.20;99.90
19330;DHT22;9799;48.214;16.388;2022-10-04T19:10:20;15.20;99.90
19330;DHT22;9799;48.214;16.388;2022-10-04T19:13:53;15.00;99.90
19330;DHT22;9799;48.214;16.388;2022-10-04T19:17:24;14.90;99.90
19330;DHT22;9799;48.214;16.388;2022-10-04T19:20:55;14.80;99.90
19330;DHT22;9799;48.214;16.388;2022-10-04T19:24:31;14.80;99.90
19330;DHT22;9799;48.214;16.388;2022-10-04T19:28:00;14.80;99.90
19330;DHT22;9799;48.214;16.388;2022-10-04T19:31:28;14.80;99.90
19330;DHT22;9799;48.214;16.388;2022-10-04T19:35:03;14.80;99.90
19330;DHT22;9799;48.214;16.388;2022-10-04T19:38:39;14.80;99.90
19330;DHT22;9799;48.214;16.388;2022-10-04T19:42:10;14.80;99.90
19330;DHT22;9799;48.214;16.388;2022-10-04T19:45:39;14.70;99.90
19330;DHT22;9799;48.214;16.388;2022-10-04T19:49:12;14.60;99.90
19330;DHT22;9799;48.214;16.388;2022-10-04T19:52:41;14.70;99.90
19330;DHT22;9799;48.214;16.388;2022-10-04T19:56:16;14.40;99.90
19330;DHT22;9799;48.214;16.388;2022-10-04T19:59:40;14.30;99.90
19330;DHT22;9799;48.214;16.388;2022-10-04T20:03:09;14.30;99.90
19330;DHT22;9799;48.214;16.388;2022-10-04T20:06:32;14.20;99.90
19330;DHT22;9799;48.214;16.388;2022-10-04T20:09:57;14.00;99.90
19330;DHT22;9799;48.214;16.388;2022-10-04T20:13:29;13.70;99.90
19330;DHT22;9799;48.214;16.388;2022-10-04T20:17:10;13.70;99.90
19330;DHT22;9799;48.214;16.388;2022-10-04T20:21:06;13.60;99.90
19330;DHT22;9799;48.214;16.388;2022-10-04T20:24:49;13.60;99.90
19330;DHT22;9799;48.214;16.388;2022-10-04T20:28:40;13.60;99.90
19330;DHT22;9799;48.214;16.388;2022-10-04T20:32:03;13.60;99.90
19330;DHT22;9799;48.214;16.388;2022-10-04T20:43:24;13.60;99.90
19330;DHT22;9799;48.214;16.388;2022-10-04T20:46:50;13.50;99.90
19330;DHT22;9799;48.214;16.388;2022-10-04T20:50:27;13.30;99.90
19330;DHT22;9799;48.214;16.388;2022-10-04T20:53:50;13.30;99.90
19330;DHT22;9799;48.214;16.388;2022-10-04T20:57:12;13.30;99.90
19330;DHT22;9799;48.214;16.388;2022-10-04T21:00:49;13.40;99.90
19330;DHT22;9799;48.214;16.388;2022-10-04T21:04:12;13.40;99.90
19330;DHT22;9799;48.214;16.388;2022-10-04T21:07:34;13.40;99.90
19330;DHT22;9799;48.214;16.388;2022-10-04T21:11:11;13.40;99.90
19330;DHT22;9799;48.214;16.388;2022-10-04T21:14:34;13.40;99.90
19330;DHT22;9799;48.214;16.388;2022-10-04T21:18:02;13.40;99.90
19330;DHT22;9799;48.214;16.388;2022-10-04T21:21:47;13.40;99.90
19330;DHT22;9799;48.214;16.388;2022-10-04T21:25:31;13.50;99.90
19330;DHT22;9799;48.214;16.388;2022-10-04T21:28:53;13.50;99.90
19330;DHT22;9799;48.214;16.388;2022-10-04T21:32:15;13.50;99.90
19330;DHT22;9799;48.214;16.388;2022-10-04T21:35:38;13.40;99.90
19330;DHT22;9799;48.214;16.388;2022-10-04T21:38:59;13.40;99.90
19330;DHT22;9799;48.214;16.388;2022-10-04T21:42:20;13.40;99.90
19330;DHT22;9799;48.214;16.388;2022-10-04T21:45:44;13.40;99.90
19330;DHT22;9799;48.214;16.388;2022-10-04T21:49:06;13.30;99.90
19330;DHT22;9799;48.214;16.388;2022-10-04T21:52:28;13.10;99.90
19330;DHT22;9799;48.214;16.388;2022-10-04T21:55:50;13.10;99.90
19330;DHT22;9799;48.214;16.388;2022-10-04T21:59:11;13.30;99.90
19330;DHT22;9799;48.214;16.388;2022-10-04T22:02:32;13.30;99.90
19330;DHT22;9799;48.214;16.388;2022-10-04T22:05:53;13.10;99.90
19330;DHT22;9799;48.214;16.388;2022-10-04T22:09:16;12.90;99.90
19330;DHT22;9799;48.214;16.388;2022-10-04T22:12:37;12.90;99.90
19330;DHT22;9799;48.214;16.388;2022-10-04T22:15:58;13.10;99.90
19330;DHT22;9799;48.214;16.388;2022-10-04T22:19:21;13.20;99.90
19330;DHT22;9799;48.214;16.388;2022-10-04T22:22:42;13.30;99.90
19330;DHT22;9799;48.214;16.388;2022-10-04T22:26:09;13.10;99.90
19330;DHT22;9799;48.214;16.388;2022-10-04T22:29:30;13.20;99.90
19330;DHT22;9799;48.214;16.388;2022-10-04T22:32:55;13.10;99.90
19330;DHT22;9799;48.214;16.388;2022-10-04T22:36:18;12.90;99.90
19330;DHT22;9799;48.214;16.388;2022-10-04T22:39:40;12.80;99.90
19330;DHT22;9799;48.214;16.388;2022-10-04T22:43:02;12.70;99.90
19330;DHT22;9799;48.214;16.388;2022-10-04T22:46:27;12.60;99.90
19330;DHT22;9799;48.214;16.388;2022-10-04T22:49:52;12.60;99.90
19330;DHT22;9799;48.214;16.388;2022-10-04T22:53:19;12.60;99.90
19330;DHT22;9799;48.214;16.388;2022-10-04T22:56:41;12.50;99.90
19330;DHT22;9799;48.214;16.388;2022-10-04T23:00:04;12.50;99.90
19330;DHT22;9799;48.214;16.388;2022-10-04T23:03:28;12.40;99.90
19330;DHT22;9799;48.214;16.388;2022-10-04T23:06:51;12.50;99.90
19330;DHT22;9799;48.214;16.388;2022-10-04T23:10:15;12.60;99.90
19330;DHT22;9799;48.214;16.388;2022-10-04T23:13:37;12.70;99.90
19330;DHT22;9799;48.214;16.388;2022-10-04T23:17:00;12.60;99.90
19330;DHT22;9799;48.214;16.388;2022-10-04T23:20:23;12.80;99.90
19330;DHT22;9799;48.214;16.388;2022-10-04T23:23:44;12.80;99.90
19330;DHT22;9799;48.214;16.388;2022-10-04T23:27:13;12.80;99.90
19330;DHT22;9799;48.214;16.388;2022-10-04T23:30:35;12.60;99.90
19330;DHT22;9799;48.214;16.388;2022-10-04T23:33:57;12.60;99.90
19330;DHT22;9799;48.214;16.388;2022-10-04T23:37:22;12.70;99.90
19330;DHT22;9799;48.214;16.388;2022-10-04T23:40:45;12.50;99.90
19330;DHT22;9799;48.214;16.388;2022-10-04T23:44:10;12.30;99.90
19330;DHT22;9799;48.214;16.388;2022-10-04T23:47:34;12.30;99.90
19330;DHT22;9799;48.214;16.388;2022-10-04T23:50:56;12.30;99.90
19330;DHT22;9799;48.214;16.388;2022-10-04T23:54:19;12.30;99.90
19330;DHT22;9799;48.214;16.388;2022-10-04T23:57:40;12.30;99.90
